sensor_id;sensor_type;location;lat;lon;timestamp;P1;durP1;ratioP1;P2;durP2;ratioP2
30420;SDS011;17218;54.070;10.012;2023-03-08T00:01:14;2.80;;;0.90;;
30420;SDS011;17218;54.070;10.012;2023-03-08T00:03:42;2.50;;;0.90;;
30420;SDS011;17218;54.070;10.012;2023-03-08T00:06:10;2.77;;;0.83;;
30420;SDS011;17218;54.070;10.012;2023-03-08T00:08:39;4.83;;;1.23;;
30420;SDS011;17218;54.070;10.012;2023-03-08T00:11:06;3.43;;;0.97;;
30420;SDS011;17218;54.070;10.012;2023-03-08T00:13:33;2.43;;;0.87;;
30420;SDS011;17218;54.070;10.012;2023-03-08T00:16:00;2.67;;;0.90;;
30420;SDS011;17218;54.070;10.012;2023-03-08T00:18:27;2.33;;;0.67;;
30420;SDS011;17218;54.070;10.012;2023-03-08T00:20:57;4.07;;;0.80;;
30420;SDS011;17218;54.070;10.012;2023-03-08T00:23:24;3.53;;;0.77;;
30420;SDS011;17218;54.070;10.012;2023-03-08T00:25:52;4.73;;;0.90;;
30420;SDS011;17218;54.070;10.012;2023-03-08T00:28:19;2.53;;;1.20;;
30420;SDS011;17218;54.070;10.012;2023-03-08T00:30:53;3.77;;;0.90;;
30420;SDS011;17218;54.070;10.012;2023-03-08T00:33:20;4.67;;;0.80;;
30420;SDS011;17218;54.070;10.012;2023-03-08T00:35:52;3.20;;;0.73;;
30420;SDS011;17218;54.070;10.012;2023-03-08T00:38:20;1.97;;;0.97;;
30420;SDS011;17218;54.070;10.012;2023-03-08T00:40:46;3.13;;;1.20;;
30420;SDS011;17218;54.070;10.012;2023-03-08T00:43:14;1.63;;;0.80;;
30420;SDS011;17218;54.070;10.012;2023-03-08T00:45:40;1.70;;;0.77;;
30420;SDS011;17218;54.070;10.012;2023-03-08T00:48:07;1.60;;;0.73;;
30420;SDS011;17218;54.070;10.012;2023-03-08T00:50:33;1.10;;;0.70;;
30420;SDS011;17218;54.070;10.012;2023-03-08T00:53:00;1.90;;;0.90;;
30420;SDS011;17218;54.070;10.012;2023-03-08T00:55:26;2.27;;;0.70;;
30420;SDS011;17218;54.070;10.012;2023-03-08T00:57:53;2.53;;;0.90;;
30420;SDS011;17218;54.070;10.012;2023-03-08T01:00:21;3.80;;;0.80;;
30420;SDS011;17218;54.070;10.012;2023-03-08T01:02:48;5.23;;;0.80;;
30420;SDS011;17218;54.070;10.012;2023-03-08T01:05:14;3.33;;;0.93;;
30420;SDS011;17218;54.070;10.012;2023-03-08T01:07:41;3.67;;;0.83;;
30420;SDS011;17218;54.070;10.012;2023-03-08T01:10:07;1.97;;;0.97;;
30420;SDS011;17218;54.070;10.012;2023-03-08T01:12:35;2.83;;;1.30;;
30420;SDS011;17218;54.070;10.012;2023-03-08T01:15:02;5.53;;;1.70;;
30420;SDS011;17218;54.070;10.012;2023-03-08T01:17:31;3.40;;;1.93;;
30420;SDS011;17218;54.070;10.012;2023-03-08T01:19:58;4.20;;;2.10;;
30420;SDS011;17218;54.070;10.012;2023-03-08T01:22:24;3.20;;;2.60;;
30420;SDS011;17218;54.070;10.012;2023-03-08T01:24:51;4.80;;;2.47;;
30420;SDS011;17218;54.070;10.012;2023-03-08T01:27:17;4.67;;;2.80;;
30420;SDS011;17218;54.070;10.012;2023-03-08T01:29:44;7.40;;;2.90;;
30420;SDS011;17218;54.070;10.012;2023-03-08T01:32:10;6.03;;;3.43;;
30420;SDS011;17218;54.070;10.012;2023-03-08T01:34:39;4.97;;;3.07;;
30420;SDS011;17218;54.070;10.012;2023-03-08T01:37:05;4.30;;;3.30;;
30420;SDS011;17218;54.070;10.012;2023-03-08T01:39:31;6.03;;;3.80;;
30420;SDS011;17218;54.070;10.012;2023-03-08T01:41:58;3.63;;;3.07;;
30420;SDS011;17218;54.070;10.012;2023-03-08T01:47:20;4.33;;;3.10;;
30420;SDS011;17218;54.070;10.012;2023-03-08T01:49:50;3.70;;;3.30;;
30420;SDS011;17218;54.070;10.012;2023-03-08T01:52:18;4.67;;;2.90;;
30420;SDS011;17218;54.070;10.012;2023-03-08T01:54:50;5.07;;;2.80;;
30420;SDS011;17218;54.070;10.012;2023-03-08T01:57:21;2.90;;;2.60;;
30420;SDS011;17218;54.070;10.012;2023-03-08T01:59:51;3.30;;;3.00;;
30420;SDS011;17218;54.070;10.012;2023-03-08T02:02:21;7.63;;;2.67;;
30420;SDS011;17218;54.070;10.012;2023-03-08T02:04:51;2.60;;;2.40;;
30420;SDS011;17218;54.070;10.012;2023-03-08T02:07:17;3.57;;;2.47;;
30420;SDS011;17218;54.070;10.012;2023-03-08T02:09:44;12.23;;;2.60;;
30420;SDS011;17218;54.070;10.012;2023-03-08T02:12:11;3.03;;;2.07;;
30420;SDS011;17218;54.070;10.012;2023-03-08T02:14:38;3.53;;;2.60;;
30420;SDS011;17218;54.070;10.012;2023-03-08T02:17:07;3.83;;;2.10;;
30420;SDS011;17218;54.070;10.012;2023-03-08T02:19:35;4.10;;;1.93;;
30420;SDS011;17218;54.070;10.012;2023-03-08T02:22:11;2.83;;;1.93;;
30420;SDS011;17218;54.070;10.012;2023-03-08T02:24:40;2.17;;;1.70;;
30420;SDS011;17218;54.070;10.012;2023-03-08T02:27:08;2.13;;;1.50;;
30420;SDS011;17218;54.070;10.012;2023-03-08T02:29:38;2.37;;;1.27;;
30420;SDS011;17218;54.070;10.012;2023-03-08T02:32:05;3.53;;;1.40;;
30420;SDS011;17218;54.070;10.012;2023-03-08T02:34:32;1.43;;;1.20;;
30420;SDS011;17218;54.070;10.012;2023-03-08T02:36:59;2.27;;;1.27;;
30420;SDS011;17218;54.070;10.012;2023-03-08T02:39:25;3.20;;;1.33;;
30420;SDS011;17218;54.070;10.012;2023-03-08T02:41:53;3.50;;;1.60;;
30420;SDS011;17218;54.070;10.012;2023-03-08T02:44:20;1.60;;;1.17;;
30420;SDS011;17218;54.070;10.012;2023-03-08T02:46:46;4.13;;;1.60;;
30420;SDS011;17218;54.070;10.012;2023-03-08T02:49:13;1.37;;;1.27;;
30420;SDS011;17218;54.070;10.012;2023-03-08T02:51:39;3.17;;;1.40;;
30420;SDS011;17218;54.070;10.012;2023-03-08T02:54:06;2.43;;;1.20;;
30420;SDS011;17218;54.070;10.012;2023-03-08T02:56:32;1.77;;;1.53;;
30420;SDS011;17218;54.070;10.012;2023-03-08T02:59:02;2.03;;;1.00;;
30420;SDS011;17218;54.070;10.012;2023-03-08T03:01:29;1.20;;;1.10;;
30420;SDS011;17218;54.070;10.012;2023-03-08T03:03:55;1.50;;;1.00;;
30420;SDS011;17218;54.070;10.012;2023-03-08T03:06:22;1.27;;;1.17;;
30420;SDS011;17218;54.070;10.012;2023-03-08T03:08:48;1.00;;;0.87;;
30420;SDS011;17218;54.070;10.012;2023-03-08T03:11:15;0.83;;;0.70;;
30420;SDS011;17218;54.070;10.012;2023-03-08T03:13:44;1.87;;;0.80;;
30420;SDS011;17218;54.070;10.012;2023-03-08T03:16:13;0.70;;;0.60;;
30420;SDS011;17218;54.070;10.012;2023-03-08T03:18:41;0.73;;;0.47;;
30420;SDS011;17218;54.070;10.012;2023-03-08T03:21:08;1.33;;;0.60;;
30420;SDS011;17218;54.070;10.012;2023-03-08T03:23:36;0.93;;;0.60;;
30420;SDS011;17218;54.070;10.012;2023-03-08T03:26:03;0.67;;;0.60;;
30420;SDS011;17218;54.070;10.012;2023-03-08T03:28:30;0.47;;;0.40;;
30420;SDS011;17218;54.070;10.012;2023-03-08T03:30:57;0.80;;;0.50;;
30420;SDS011;17218;54.070;10.012;2023-03-08T03:33:25;0.77;;;0.40;;
30420;SDS011;17218;54.070;10.012;2023-03-08T03:35:51;1.13;;;0.47;;
30420;SDS011;17218;54.070;10.012;2023-03-08T03:38:18;1.30;;;0.57;;
30420;SDS011;17218;54.070;10.012;2023-03-08T03:40:44;1.73;;;0.63;;
30420;SDS011;17218;54.070;10.012;2023-03-08T03:43:11;1.63;;;0.80;;
30420;SDS011;17218;54.070;10.012;2023-03-08T03:45:37;0.77;;;0.77;;
30420;SDS011;17218;54.070;10.012;2023-03-08T03:48:04;2.20;;;1.23;;
30420;SDS011;17218;54.070;10.012;2023-03-08T03:50:32;2.03;;;1.50;;
30420;SDS011;17218;54.070;10.012;2023-03-08T03:52:58;2.33;;;1.90;;
30420;SDS011;17218;54.070;10.012;2023-03-08T03:55:25;2.57;;;1.40;;
30420;SDS011;17218;54.070;10.012;2023-03-08T03:57:51;1.77;;;1.40;;
30420;SDS011;17218;54.070;10.012;2023-03-08T04:00:18;2.00;;;1.53;;
30420;SDS011;17218;54.070;10.012;2023-03-08T04:02:46;2.80;;;2.13;;
30420;SDS011;17218;54.070;10.012;2023-03-08T04:05:12;2.93;;;2.40;;
30420;SDS011;17218;54.070;10.012;2023-03-08T04:07:40;5.00;;;2.73;;
30420;SDS011;17218;54.070;10.012;2023-03-08T04:10:07;5.70;;;3.00;;
30420;SDS011;17218;54.070;10.012;2023-03-08T04:12:34;4.00;;;2.70;;
30420;SDS011;17218;54.070;10.012;2023-03-08T04:15:00;3.07;;;2.70;;
30420;SDS011;17218;54.070;10.012;2023-03-08T04:17:27;4.17;;;3.73;;
30420;SDS011;17218;54.070;10.012;2023-03-08T04:19:53;6.13;;;4.07;;
30420;SDS011;17218;54.070;10.012;2023-03-08T04:22:19;9.27;;;4.50;;
30420;SDS011;17218;54.070;10.012;2023-03-08T04:24:47;7.83;;;5.50;;
30420;SDS011;17218;54.070;10.012;2023-03-08T04:27:14;8.80;;;5.20;;
30420;SDS011;17218;54.070;10.012;2023-03-08T04:29:40;8.13;;;5.13;;
30420;SDS011;17218;54.070;10.012;2023-03-08T04:38:51;6.80;;;5.30;;
30420;SDS011;17218;54.070;10.012;2023-03-08T04:41:19;7.97;;;6.77;;
30420;SDS011;17218;54.070;10.012;2023-03-08T04:43:46;8.80;;;6.60;;
30420;SDS011;17218;54.070;10.012;2023-03-08T04:46:15;10.73;;;6.80;;
30420;SDS011;17218;54.070;10.012;2023-03-08T04:48:42;7.97;;;6.37;;
30420;SDS011;17218;54.070;10.012;2023-03-08T04:51:09;10.40;;;7.87;;
30420;SDS011;17218;54.070;10.012;2023-03-08T04:53:37;10.47;;;7.67;;
30420;SDS011;17218;54.070;10.012;2023-03-08T04:56:06;10.40;;;7.67;;
30420;SDS011;17218;54.070;10.012;2023-03-08T04:58:35;11.10;;;7.40;;
30420;SDS011;17218;54.070;10.012;2023-03-08T05:01:07;9.73;;;7.30;;
30420;SDS011;17218;54.070;10.012;2023-03-08T05:03:34;10.47;;;7.87;;
30420;SDS011;17218;54.070;10.012;2023-03-08T05:06:01;10.83;;;7.80;;
30420;SDS011;17218;54.070;10.012;2023-03-08T05:08:27;9.83;;;7.67;;
30420;SDS011;17218;54.070;10.012;2023-03-08T05:10:54;12.30;;;7.77;;
30420;SDS011;17218;54.070;10.012;2023-03-08T05:13:22;10.73;;;7.10;;
30420;SDS011;17218;54.070;10.012;2023-03-08T05:15:50;11.43;;;7.83;;
30420;SDS011;17218;54.070;10.012;2023-03-08T05:18:17;14.07;;;8.53;;
30420;SDS011;17218;54.070;10.012;2023-03-08T05:20:51;11.07;;;7.33;;
30420;SDS011;17218;54.070;10.012;2023-03-08T05:23:19;11.83;;;7.63;;
30420;SDS011;17218;54.070;10.012;2023-03-08T05:25:45;12.43;;;8.00;;
30420;SDS011;17218;54.070;10.012;2023-03-08T05:28:12;10.53;;;8.00;;
30420;SDS011;17218;54.070;10.012;2023-03-08T05:30:39;10.07;;;7.63;;
30420;SDS011;17218;54.070;10.012;2023-03-08T05:33:07;15.97;;;8.47;;
30420;SDS011;17218;54.070;10.012;2023-03-08T05:35:34;9.70;;;8.27;;
30420;SDS011;17218;54.070;10.012;2023-03-08T05:38:00;10.53;;;8.43;;
30420;SDS011;17218;54.070;10.012;2023-03-08T05:40:27;11.00;;;8.17;;
30420;SDS011;17218;54.070;10.012;2023-03-08T05:42:54;12.70;;;7.77;;
30420;SDS011;17218;54.070;10.012;2023-03-08T05:45:20;12.97;;;8.83;;
30420;SDS011;17218;54.070;10.012;2023-03-08T05:47:47;9.80;;;6.83;;
30420;SDS011;17218;54.070;10.012;2023-03-08T05:50:15;11.60;;;8.43;;
30420;SDS011;17218;54.070;10.012;2023-03-08T05:52:41;12.40;;;8.47;;
30420;SDS011;17218;54.070;10.012;2023-03-08T05:55:09;12.20;;;8.93;;
30420;SDS011;17218;54.070;10.012;2023-03-08T05:57:35;11.47;;;7.77;;
30420;SDS011;17218;54.070;10.012;2023-03-08T06:00:02;11.70;;;8.00;;
30420;SDS011;17218;54.070;10.012;2023-03-08T06:02:29;13.37;;;6.53;;
30420;SDS011;17218;54.070;10.012;2023-03-08T06:04:56;15.00;;;7.70;;
30420;SDS011;17218;54.070;10.012;2023-03-08T06:07:23;13.17;;;8.13;;
30420;SDS011;17218;54.070;10.012;2023-03-08T06:09:50;13.07;;;7.83;;
30420;SDS011;17218;54.070;10.012;2023-03-08T06:12:16;9.17;;;6.80;;
30420;SDS011;17218;54.070;10.012;2023-03-08T06:14:43;10.17;;;7.20;;
30420;SDS011;17218;54.070;10.012;2023-03-08T06:17:09;9.63;;;8.27;;
30420;SDS011;17218;54.070;10.012;2023-03-08T06:19:36;10.93;;;7.10;;
30420;SDS011;17218;54.070;10.012;2023-03-08T06:22:02;13.07;;;8.07;;
30420;SDS011;17218;54.070;10.012;2023-03-08T06:24:30;14.50;;;8.30;;
30420;SDS011;17218;54.070;10.012;2023-03-08T06:26:57;10.17;;;7.87;;
30420;SDS011;17218;54.070;10.012;2023-03-08T06:29:24;11.33;;;8.03;;
30420;SDS011;17218;54.070;10.012;2023-03-08T06:31:52;11.93;;;8.90;;
30420;SDS011;17218;54.070;10.012;2023-03-08T06:34:18;11.23;;;8.07;;
30420;SDS011;17218;54.070;10.012;2023-03-08T06:36:45;11.47;;;8.10;;
30420;SDS011;17218;54.070;10.012;2023-03-08T06:39:12;12.27;;;7.77;;
30420;SDS011;17218;54.070;10.012;2023-03-08T06:41:40;10.63;;;7.97;;
30420;SDS011;17218;54.070;10.012;2023-03-08T06:44:06;10.83;;;7.90;;
30420;SDS011;17218;54.070;10.012;2023-03-08T06:46:33;12.03;;;7.43;;
30420;SDS011;17218;54.070;10.012;2023-03-08T06:48:59;10.20;;;7.67;;
30420;SDS011;17218;54.070;10.012;2023-03-08T06:51:27;10.27;;;7.73;;
30420;SDS011;17218;54.070;10.012;2023-03-08T06:54:05;10.47;;;7.77;;
30420;SDS011;17218;54.070;10.012;2023-03-08T06:56:32;7.37;;;5.73;;
30420;SDS011;17218;54.070;10.012;2023-03-08T06:59:00;7.47;;;5.00;;
30420;SDS011;17218;54.070;10.012;2023-03-08T07:01:26;10.27;;;7.73;;
30420;SDS011;17218;54.070;10.012;2023-03-08T07:03:52;9.93;;;6.80;;
30420;SDS011;17218;54.070;10.012;2023-03-08T07:06:19;9.57;;;7.33;;
30420;SDS011;17218;54.070;10.012;2023-03-08T07:08:45;11.47;;;8.33;;
30420;SDS011;17218;54.070;10.012;2023-03-08T07:11:12;8.87;;;7.33;;
30420;SDS011;17218;54.070;10.012;2023-03-08T07:13:38;10.60;;;8.17;;
30420;SDS011;17218;54.070;10.012;2023-03-08T07:16:07;12.93;;;8.27;;
30420;SDS011;17218;54.070;10.012;2023-03-08T07:18:34;11.73;;;8.27;;
30420;SDS011;17218;54.070;10.012;2023-03-08T07:21:01;12.90;;;8.83;;
30420;SDS011;17218;54.070;10.012;2023-03-08T07:23:28;10.67;;;7.57;;
30420;SDS011;17218;54.070;10.012;2023-03-08T07:25:54;11.83;;;7.47;;
30420;SDS011;17218;54.070;10.012;2023-03-08T07:28:21;11.83;;;7.20;;
30420;SDS011;17218;54.070;10.012;2023-03-08T07:30:48;10.63;;;6.33;;
30420;SDS011;17218;54.070;10.012;2023-03-08T07:33:16;8.23;;;6.90;;
30420;SDS011;17218;54.070;10.012;2023-03-08T07:35:44;9.20;;;6.67;;
30420;SDS011;17218;54.070;10.012;2023-03-08T07:38:11;8.07;;;6.50;;
30420;SDS011;17218;54.070;10.012;2023-03-08T07:40:38;9.13;;;6.57;;
30420;SDS011;17218;54.070;10.012;2023-03-08T07:43:04;7.97;;;6.23;;
30420;SDS011;17218;54.070;10.012;2023-03-08T07:45:31;12.50;;;7.03;;
30420;SDS011;17218;54.070;10.012;2023-03-08T07:47:57;7.83;;;6.20;;
30420;SDS011;17218;54.070;10.012;2023-03-08T07:50:25;7.53;;;5.83;;
30420;SDS011;17218;54.070;10.012;2023-03-08T07:52:52;7.90;;;5.40;;
30420;SDS011;17218;54.070;10.012;2023-03-08T07:55:18;6.50;;;5.10;;
30420;SDS011;17218;54.070;10.012;2023-03-08T07:57:45;7.17;;;5.43;;
30420;SDS011;17218;54.070;10.012;2023-03-08T08:00:12;6.17;;;5.00;;
30420;SDS011;17218;54.070;10.012;2023-03-08T08:02:39;7.37;;;4.77;;
30420;SDS011;17218;54.070;10.012;2023-03-08T08:05:06;8.50;;;5.50;;
30420;SDS011;17218;54.070;10.012;2023-03-08T08:07:34;5.53;;;4.37;;
30420;SDS011;17218;54.070;10.012;2023-03-08T08:10:01;6.73;;;4.97;;
30420;SDS011;17218;54.070;10.012;2023-03-08T08:12:27;5.93;;;4.57;;
30420;SDS011;17218;54.070;10.012;2023-03-08T08:14:53;6.93;;;5.00;;
30420;SDS011;17218;54.070;10.012;2023-03-08T08:17:20;5.47;;;4.97;;
30420;SDS011;17218;54.070;10.012;2023-03-08T08:19:47;8.27;;;5.07;;
30420;SDS011;17218;54.070;10.012;2023-03-08T08:22:14;5.27;;;3.70;;
30420;SDS011;17218;54.070;10.012;2023-03-08T08:24:42;3.87;;;3.47;;
30420;SDS011;17218;54.070;10.012;2023-03-08T08:27:08;3.97;;;3.57;;
30420;SDS011;17218;54.070;10.012;2023-03-08T08:29:35;6.10;;;3.67;;
30420;SDS011;17218;54.070;10.012;2023-03-08T08:32:02;3.33;;;3.03;;
30420;SDS011;17218;54.070;10.012;2023-03-08T08:34:29;3.57;;;3.27;;
30420;SDS011;17218;54.070;10.012;2023-03-08T08:36:56;5.27;;;3.40;;
30420;SDS011;17218;54.070;10.012;2023-03-08T08:39:22;4.07;;;3.53;;
30420;SDS011;17218;54.070;10.012;2023-03-08T08:41:50;5.27;;;3.80;;
30420;SDS011;17218;54.070;10.012;2023-03-08T08:44:16;5.67;;;4.10;;
30420;SDS011;17218;54.070;10.012;2023-03-08T08:46:46;6.10;;;3.30;;
30420;SDS011;17218;54.070;10.012;2023-03-08T08:49:16;3.63;;;3.00;;
30420;SDS011;17218;54.070;10.012;2023-03-08T08:51:42;4.13;;;2.97;;
30420;SDS011;17218;54.070;10.012;2023-03-08T08:54:09;4.13;;;3.00;;
30420;SDS011;17218;54.070;10.012;2023-03-08T08:56:35;4.30;;;3.40;;
30420;SDS011;17218;54.070;10.012;2023-03-08T08:59:08;3.77;;;2.80;;
30420;SDS011;17218;54.070;10.012;2023-03-08T09:01:36;4.03;;;3.17;;
30420;SDS011;17218;54.070;10.012;2023-03-08T09:04:07;4.33;;;3.10;;
30420;SDS011;17218;54.070;10.012;2023-03-08T09:06:34;4.03;;;2.80;;
30420;SDS011;17218;54.070;10.012;2023-03-08T09:09:00;3.10;;;2.53;;
30420;SDS011;17218;54.070;10.012;2023-03-08T09:11:27;3.47;;;3.17;;
30420;SDS011;17218;54.070;10.012;2023-03-08T09:13:54;3.60;;;3.03;;
30420;SDS011;17218;54.070;10.012;2023-03-08T09:16:23;3.33;;;3.03;;
30420;SDS011;17218;54.070;10.012;2023-03-08T09:18:51;3.87;;;3.10;;
30420;SDS011;17218;54.070;10.012;2023-03-08T09:21:18;3.80;;;3.27;;
30420;SDS011;17218;54.070;10.012;2023-03-08T09:23:44;4.20;;;2.97;;
30420;SDS011;17218;54.070;10.012;2023-03-08T09:26:11;2.93;;;2.73;;
30420;SDS011;17218;54.070;10.012;2023-03-08T09:28:38;3.10;;;2.60;;
30420;SDS011;17218;54.070;10.012;2023-03-08T09:31:05;4.53;;;3.40;;
30420;SDS011;17218;54.070;10.012;2023-03-08T09:33:37;3.97;;;3.23;;
30420;SDS011;17218;54.070;10.012;2023-03-08T09:36:04;3.43;;;2.70;;
30420;SDS011;17218;54.070;10.012;2023-03-08T09:38:31;5.33;;;2.40;;
30420;SDS011;17218;54.070;10.012;2023-03-08T09:41:05;2.53;;;2.33;;
30420;SDS011;17218;54.070;10.012;2023-03-08T09:43:42;3.00;;;2.20;;
30420;SDS011;17218;54.070;10.012;2023-03-08T09:46:12;3.63;;;1.97;;
30420;SDS011;17218;54.070;10.012;2023-03-08T09:48:45;3.40;;;2.17;;
30420;SDS011;17218;54.070;10.012;2023-03-08T09:51:15;3.77;;;2.07;;
30420;SDS011;17218;54.070;10.012;2023-03-08T09:53:46;3.90;;;2.00;;
30420;SDS011;17218;54.070;10.012;2023-03-08T09:56:18;2.37;;;1.97;;
30420;SDS011;17218;54.070;10.012;2023-03-08T09:58:48;1.83;;;1.70;;
30420;SDS011;17218;54.070;10.012;2023-03-08T10:01:23;3.90;;;1.90;;
30420;SDS011;17218;54.070;10.012;2023-03-08T10:04:25;2.40;;;1.70;;
30420;SDS011;17218;54.070;10.012;2023-03-08T10:07:04;2.00;;;1.80;;
30420;SDS011;17218;54.070;10.012;2023-03-08T10:09:43;5.13;;;2.10;;
30420;SDS011;17218;54.070;10.012;2023-03-08T10:12:19;2.03;;;1.83;;
30420;SDS011;17218;54.070;10.012;2023-03-08T10:14:49;2.43;;;2.00;;
30420;SDS011;17218;54.070;10.012;2023-03-08T10:17:20;3.37;;;2.67;;
30420;SDS011;17218;54.070;10.012;2023-03-08T10:19:51;2.13;;;1.90;;
30420;SDS011;17218;54.070;10.012;2023-03-08T10:22:24;3.40;;;2.03;;
30420;SDS011;17218;54.070;10.012;2023-03-08T10:24:53;3.37;;;2.37;;
30420;SDS011;17218;54.070;10.012;2023-03-08T10:27:23;2.77;;;1.70;;
30420;SDS011;17218;54.070;10.012;2023-03-08T10:29:52;2.27;;;1.70;;
30420;SDS011;17218;54.070;10.012;2023-03-08T10:32:21;4.43;;;1.90;;
30420;SDS011;17218;54.070;10.012;2023-03-08T10:34:48;2.90;;;1.93;;
30420;SDS011;17218;54.070;10.012;2023-03-08T10:37:18;3.20;;;2.13;;
30420;SDS011;17218;54.070;10.012;2023-03-08T10:39:47;4.93;;;2.53;;
30420;SDS011;17218;54.070;10.012;2023-03-08T10:42:17;3.17;;;2.57;;
30420;SDS011;17218;54.070;10.012;2023-03-08T10:44:50;2.20;;;2.00;;
30420;SDS011;17218;54.070;10.012;2023-03-08T10:47:20;2.93;;;2.10;;
30420;SDS011;17218;54.070;10.012;2023-03-08T10:49:48;2.57;;;2.10;;
30420;SDS011;17218;54.070;10.012;2023-03-08T10:52:21;4.17;;;2.20;;
30420;SDS011;17218;54.070;10.012;2023-03-08T10:55:00;3.47;;;1.93;;
30420;SDS011;17218;54.070;10.012;2023-03-08T10:57:28;4.73;;;1.77;;
30420;SDS011;17218;54.070;10.012;2023-03-08T10:59:56;1.93;;;1.70;;
30420;SDS011;17218;54.070;10.012;2023-03-08T11:02:26;2.10;;;1.90;;
30420;SDS011;17218;54.070;10.012;2023-03-08T11:04:53;2.77;;;2.33;;
30420;SDS011;17218;54.070;10.012;2023-03-08T11:07:23;5.73;;;2.63;;
30420;SDS011;17218;54.070;10.012;2023-03-08T11:09:51;2.40;;;2.10;;
30420;SDS011;17218;54.070;10.012;2023-03-08T11:12:29;2.00;;;1.80;;
30420;SDS011;17218;54.070;10.012;2023-03-08T11:14:55;4.10;;;2.10;;
30420;SDS011;17218;54.070;10.012;2023-03-08T11:17:22;2.17;;;1.87;;
30420;SDS011;17218;54.070;10.012;2023-03-08T11:19:57;2.50;;;2.30;;
30420;SDS011;17218;54.070;10.012;2023-03-08T11:22:39;2.80;;;2.17;;
30420;SDS011;17218;54.070;10.012;2023-03-08T11:25:15;5.60;;;1.73;;
30420;SDS011;17218;54.070;10.012;2023-03-08T11:27:54;2.30;;;2.10;;
30420;SDS011;17218;54.070;10.012;2023-03-08T11:30:33;3.83;;;2.20;;
30420;SDS011;17218;54.070;10.012;2023-03-08T11:33:16;2.20;;;2.00;;
30420;SDS011;17218;54.070;10.012;2023-03-08T11:35:54;2.13;;;1.60;;
30420;SDS011;17218;54.070;10.012;2023-03-08T11:38:29;2.90;;;1.97;;
30420;SDS011;17218;54.070;10.012;2023-03-08T11:40:58;4.77;;;2.07;;
30420;SDS011;17218;54.070;10.012;2023-03-08T11:43:35;2.73;;;1.73;;
30420;SDS011;17218;54.070;10.012;2023-03-08T11:46:19;2.50;;;1.93;;
30420;SDS011;17218;54.070;10.012;2023-03-08T11:49:01;2.37;;;1.67;;
30420;SDS011;17218;54.070;10.012;2023-03-08T11:51:39;2.17;;;1.57;;
30420;SDS011;17218;54.070;10.012;2023-03-08T11:54:17;1.70;;;1.60;;
30420;SDS011;17218;54.070;10.012;2023-03-08T11:56:53;1.70;;;1.57;;
30420;SDS011;17218;54.070;10.012;2023-03-08T11:59:22;1.83;;;1.50;;
30420;SDS011;17218;54.070;10.012;2023-03-08T12:01:55;2.40;;;1.80;;
30420;SDS011;17218;54.070;10.012;2023-03-08T12:04:29;2.13;;;1.80;;
30420;SDS011;17218;54.070;10.012;2023-03-08T12:07:00;2.13;;;1.83;;
30420;SDS011;17218;54.070;10.012;2023-03-08T12:09:33;2.23;;;2.03;;
30420;SDS011;17218;54.070;10.012;2023-03-08T12:12:05;2.83;;;1.77;;
30420;SDS011;17218;54.070;10.012;2023-03-08T12:14:40;3.50;;;1.90;;
30420;SDS011;17218;54.070;10.012;2023-03-08T12:17:15;2.13;;;1.93;;
30420;SDS011;17218;54.070;10.012;2023-03-08T12:19:45;2.37;;;1.97;;
30420;SDS011;17218;54.070;10.012;2023-03-08T12:22:17;3.43;;;2.10;;
30420;SDS011;17218;54.070;10.012;2023-03-08T12:24:54;2.03;;;1.83;;
30420;SDS011;17218;54.070;10.012;2023-03-08T12:27:26;3.33;;;1.70;;
30420;SDS011;17218;54.070;10.012;2023-03-08T12:29:58;2.97;;;1.87;;
30420;SDS011;17218;54.070;10.012;2023-03-08T12:32:37;4.10;;;1.90;;
30420;SDS011;17218;54.070;10.012;2023-03-08T12:35:06;1.83;;;1.70;;
30420;SDS011;17218;54.070;10.012;2023-03-08T12:37:53;3.00;;;1.83;;
30420;SDS011;17218;54.070;10.012;2023-03-08T12:43:11;2.50;;;1.80;;
30420;SDS011;17218;54.070;10.012;2023-03-08T12:45:39;4.40;;;1.80;;
30420;SDS011;17218;54.070;10.012;2023-03-08T12:48:21;4.70;;;2.03;;
30420;SDS011;17218;54.070;10.012;2023-03-08T12:50:54;1.83;;;1.70;;
30420;SDS011;17218;54.070;10.012;2023-03-08T12:53:25;4.03;;;2.00;;
30420;SDS011;17218;54.070;10.012;2023-03-08T12:56:01;4.43;;;1.43;;
30420;SDS011;17218;54.070;10.012;2023-03-08T12:58:30;2.53;;;1.70;;
30420;SDS011;17218;54.070;10.012;2023-03-08T13:00:59;1.83;;;1.57;;
30420;SDS011;17218;54.070;10.012;2023-03-08T13:03:28;1.57;;;1.47;;
30420;SDS011;17218;54.070;10.012;2023-03-08T13:06:12;3.60;;;1.60;;
30420;SDS011;17218;54.070;10.012;2023-03-08T13:08:41;3.17;;;1.70;;
30420;SDS011;17218;54.070;10.012;2023-03-08T13:11:15;2.63;;;1.60;;
30420;SDS011;17218;54.070;10.012;2023-03-08T13:13:44;1.80;;;1.70;;
30420;SDS011;17218;54.070;10.012;2023-03-08T13:16:18;2.00;;;1.50;;
30420;SDS011;17218;54.070;10.012;2023-03-08T13:19:00;1.40;;;1.30;;
30420;SDS011;17218;54.070;10.012;2023-03-08T13:21:32;2.30;;;1.70;;
30420;SDS011;17218;54.070;10.012;2023-03-08T13:24:07;1.63;;;1.33;;
30420;SDS011;17218;54.070;10.012;2023-03-08T13:26:56;1.88;;;1.40;;
30420;SDS011;17218;54.070;10.012;2023-03-08T13:29:34;2.97;;;1.90;;
30420;SDS011;17218;54.070;10.012;2023-03-08T13:32:04;2.58;;;1.50;;
30420;SDS011;17218;54.070;10.012;2023-03-08T13:34:37;1.73;;;1.30;;
30420;SDS011;17218;54.070;10.012;2023-03-08T13:37:05;3.60;;;2.75;;
30420;SDS011;17218;54.070;10.012;2023-03-08T13:39:50;1.55;;;1.25;;
30420;SDS011;17218;54.070;10.012;2023-03-08T13:42:19;1.65;;;1.48;;
30420;SDS011;17218;54.070;10.012;2023-03-08T13:44:48;1.40;;;1.30;;
30420;SDS011;17218;54.070;10.012;2023-03-08T13:47:17;1.92;;;1.50;;
30420;SDS011;17218;54.070;10.012;2023-03-08T13:49:47;4.40;;;1.65;;
30420;SDS011;17218;54.070;10.012;2023-03-08T13:52:16;2.38;;;1.45;;
30420;SDS011;17218;54.070;10.012;2023-03-08T13:54:46;2.65;;;1.58;;
30420;SDS011;17218;54.070;10.012;2023-03-08T13:57:16;1.53;;;1.40;;
30420;SDS011;17218;54.070;10.012;2023-03-08T13:59:47;2.27;;;1.60;;
30420;SDS011;17218;54.070;10.012;2023-03-08T14:02:17;2.30;;;1.73;;
30420;SDS011;17218;54.070;10.012;2023-03-08T14:04:45;1.43;;;1.30;;
30420;SDS011;17218;54.070;10.012;2023-03-08T14:07:16;2.60;;;1.37;;
30420;SDS011;17218;54.070;10.012;2023-03-08T14:09:46;1.63;;;1.53;;
30420;SDS011;17218;54.070;10.012;2023-03-08T14:12:14;1.70;;;1.30;;
30420;SDS011;17218;54.070;10.012;2023-03-08T14:14:45;3.03;;;1.73;;
30420;SDS011;17218;54.070;10.012;2023-03-08T14:17:17;2.00;;;1.23;;
30420;SDS011;17218;54.070;10.012;2023-03-08T14:19:50;3.53;;;1.80;;
30420;SDS011;17218;54.070;10.012;2023-03-08T14:22:18;1.87;;;1.17;;
30420;SDS011;17218;54.070;10.012;2023-03-08T14:24:47;1.57;;;1.23;;
30420;SDS011;17218;54.070;10.012;2023-03-08T14:30:13;1.25;;;1.15;;
30420;SDS011;17218;54.070;10.012;2023-03-08T14:32:52;1.52;;;1.13;;
30420;SDS011;17218;54.070;10.012;2023-03-08T14:35:22;1.02;;;1.00;;
30420;SDS011;17218;54.070;10.012;2023-03-08T14:37:51;1.30;;;1.20;;
30420;SDS011;17218;54.070;10.012;2023-03-08T14:40:22;0.85;;;0.80;;
30420;SDS011;17218;54.070;10.012;2023-03-08T14:42:54;1.20;;;1.10;;
30420;SDS011;17218;54.070;10.012;2023-03-08T14:45:24;1.80;;;0.90;;
30420;SDS011;17218;54.070;10.012;2023-03-08T14:47:55;1.20;;;1.10;;
30420;SDS011;17218;54.070;10.012;2023-03-08T14:50:24;1.23;;;0.80;;
30420;SDS011;17218;54.070;10.012;2023-03-08T14:52:52;1.63;;;1.10;;
30420;SDS011;17218;54.070;10.012;2023-03-08T14:55:21;3.25;;;1.33;;
30420;SDS011;17218;54.070;10.012;2023-03-08T14:57:50;2.90;;;1.13;;
30420;SDS011;17218;54.070;10.012;2023-03-08T15:00:18;0.82;;;0.82;;